sensor_id;sensor_type;location;lat;lon;timestamp;P1;durP1;ratioP1;P2;durP2;ratioP2
78589;SDS011;67888;50.228;7.828;2023-07-29T00:01:14;5.18;;;2.17;;
78589;SDS011;67888;50.228;7.828;2023-07-29T00:06:14;5.50;;;2.27;;
78589;SDS011;67888;50.228;7.828;2023-07-29T00:11:15;5.30;;;2.10;;
78589;SDS011;67888;50.228;7.828;2023-07-29T00:16:15;5.47;;;2.10;;
78589;SDS011;67888;50.228;7.828;2023-07-29T00:21:17;5.47;;;2.00;;
78589;SDS011;67888;50.228;7.828;2023-07-29T00:26:17;6.30;;;2.30;;
78589;SDS011;67888;50.228;7.828;2023-07-29T00:31:17;7.75;;;2.22;;
78589;SDS011;67888;50.228;7.828;2023-07-29T00:36:18;5.77;;;2.33;;
78589;SDS011;67888;50.228;7.828;2023-07-29T00:41:18;5.23;;;2.53;;
78589;SDS011;67888;50.228;7.828;2023-07-29T00:46:19;5.07;;;2.33;;
78589;SDS011;67888;50.228;7.828;2023-07-29T00:51:20;5.30;;;2.15;;
78589;SDS011;67888;50.228;7.828;2023-07-29T00:56:20;7.33;;;2.70;;
78589;SDS011;67888;50.228;7.828;2023-07-29T01:01:21;4.93;;;2.20;;
78589;SDS011;67888;50.228;7.828;2023-07-29T01:16:32;7.15;;;2.80;;
78589;SDS011;67888;50.228;7.828;2023-07-29T01:21:35;6.13;;;2.67;;
78589;SDS011;67888;50.228;7.828;2023-07-29T01:26:36;6.40;;;2.55;;
78589;SDS011;67888;50.228;7.828;2023-07-29T01:31:39;6.63;;;2.93;;
78589;SDS011;67888;50.228;7.828;2023-07-29T01:36:43;8.07;;;2.78;;
78589;SDS011;67888;50.228;7.828;2023-07-29T01:41:45;6.53;;;2.80;;
78589;SDS011;67888;50.228;7.828;2023-07-29T01:46:46;5.87;;;2.87;;
78589;SDS011;67888;50.228;7.828;2023-07-29T01:51:46;6.57;;;2.73;;
78589;SDS011;67888;50.228;7.828;2023-07-29T01:56:47;7.80;;;2.50;;
78589;SDS011;67888;50.228;7.828;2023-07-29T02:01:47;7.57;;;2.47;;
78589;SDS011;67888;50.228;7.828;2023-07-29T02:06:48;5.22;;;2.72;;
78589;SDS011;67888;50.228;7.828;2023-07-29T02:11:49;5.83;;;2.63;;
78589;SDS011;67888;50.228;7.828;2023-07-29T02:16:49;7.50;;;2.47;;
78589;SDS011;67888;50.228;7.828;2023-07-29T02:21:50;6.23;;;2.67;;
78589;SDS011;67888;50.228;7.828;2023-07-29T02:26:50;6.40;;;3.00;;
78589;SDS011;67888;50.228;7.828;2023-07-29T02:31:50;7.10;;;2.53;;
78589;SDS011;67888;50.228;7.828;2023-07-29T02:36:51;7.73;;;2.70;;
78589;SDS011;67888;50.228;7.828;2023-07-29T02:41:51;7.93;;;2.83;;
78589;SDS011;67888;50.228;7.828;2023-07-29T02:46:51;7.90;;;2.80;;
78589;SDS011;67888;50.228;7.828;2023-07-29T02:51:53;5.68;;;2.53;;
78589;SDS011;67888;50.228;7.828;2023-07-29T02:56:53;5.87;;;2.70;;
78589;SDS011;67888;50.228;7.828;2023-07-29T03:01:53;6.40;;;2.87;;
78589;SDS011;67888;50.228;7.828;2023-07-29T03:06:54;6.30;;;2.87;;
78589;SDS011;67888;50.228;7.828;2023-07-29T03:11:54;6.50;;;2.60;;
78589;SDS011;67888;50.228;7.828;2023-07-29T03:16:55;6.97;;;3.30;;
78589;SDS011;67888;50.228;7.828;2023-07-29T03:21:55;5.97;;;3.20;;
78589;SDS011;67888;50.228;7.828;2023-07-29T03:26:55;8.93;;;3.47;;
78589;SDS011;67888;50.228;7.828;2023-07-29T03:31:56;8.60;;;3.13;;
78589;SDS011;67888;50.228;7.828;2023-07-29T03:36:56;7.47;;;3.13;;
78589;SDS011;67888;50.228;7.828;2023-07-29T03:41:56;6.10;;;3.17;;
78589;SDS011;67888;50.228;7.828;2023-07-29T03:46:57;7.60;;;3.37;;
78589;SDS011;67888;50.228;7.828;2023-07-29T03:51:57;6.33;;;3.03;;
78589;SDS011;67888;50.228;7.828;2023-07-29T03:56:58;7.43;;;3.27;;
78589;SDS011;67888;50.228;7.828;2023-07-29T04:01:58;7.17;;;3.47;;
78589;SDS011;67888;50.228;7.828;2023-07-29T04:06:58;6.43;;;3.43;;
78589;SDS011;67888;50.228;7.828;2023-07-29T04:11:58;8.03;;;3.40;;
78589;SDS011;67888;50.228;7.828;2023-07-29T04:16:59;7.07;;;3.30;;
78589;SDS011;67888;50.228;7.828;2023-07-29T04:21:59;8.00;;;2.90;;
78589;SDS011;67888;50.228;7.828;2023-07-29T04:27:00;7.53;;;3.40;;
78589;SDS011;67888;50.228;7.828;2023-07-29T04:32:00;6.47;;;3.10;;
78589;SDS011;67888;50.228;7.828;2023-07-29T04:37:01;8.25;;;3.25;;
78589;SDS011;67888;50.228;7.828;2023-07-29T04:42:01;6.53;;;3.50;;
78589;SDS011;67888;50.228;7.828;2023-07-29T04:47:02;7.57;;;3.23;;
78589;SDS011;67888;50.228;7.828;2023-07-29T04:52:02;6.23;;;3.13;;
78589;SDS011;67888;50.228;7.828;2023-07-29T04:57:03;6.77;;;3.00;;
78589;SDS011;67888;50.228;7.828;2023-07-29T05:02:03;6.30;;;3.10;;
78589;SDS011;67888;50.228;7.828;2023-07-29T05:07:03;7.43;;;3.50;;
78589;SDS011;67888;50.228;7.828;2023-07-29T05:12:04;6.47;;;3.47;;
78589;SDS011;67888;50.228;7.828;2023-07-29T05:17:05;6.65;;;3.40;;
78589;SDS011;67888;50.228;7.828;2023-07-29T05:22:05;8.43;;;3.33;;
78589;SDS011;67888;50.228;7.828;2023-07-29T05:27:06;7.50;;;3.87;;
78589;SDS011;67888;50.228;7.828;2023-07-29T05:32:08;12.23;;;3.40;;
78589;SDS011;67888;50.228;7.828;2023-07-29T05:37:08;8.80;;;4.03;;
78589;SDS011;67888;50.228;7.828;2023-07-29T05:42:09;8.40;;;3.70;;
78589;SDS011;67888;50.228;7.828;2023-07-29T05:47:09;7.90;;;3.63;;
78589;SDS011;67888;50.228;7.828;2023-07-29T05:52:10;7.63;;;3.80;;
78589;SDS011;67888;50.228;7.828;2023-07-29T05:57:11;8.27;;;3.77;;
78589;SDS011;67888;50.228;7.828;2023-07-29T06:02:11;9.90;;;3.45;;
78589;SDS011;67888;50.228;7.828;2023-07-29T06:07:11;8.73;;;3.90;;
78589;SDS011;67888;50.228;7.828;2023-07-29T06:12:12;7.10;;;3.43;;
78589;SDS011;67888;50.228;7.828;2023-07-29T06:17:13;7.57;;;3.37;;
78589;SDS011;67888;50.228;7.828;2023-07-29T06:22:13;9.87;;;3.73;;
78589;SDS011;67888;50.228;7.828;2023-07-29T06:27:13;8.20;;;3.50;;
78589;SDS011;67888;50.228;7.828;2023-07-29T06:32:14;7.13;;;3.50;;
78589;SDS011;67888;50.228;7.828;2023-07-29T06:37:14;7.60;;;3.10;;
78589;SDS011;67888;50.228;7.828;2023-07-29T06:42:14;7.13;;;3.37;;
78589;SDS011;67888;50.228;7.828;2023-07-29T06:47:15;7.90;;;3.70;;
78589;SDS011;67888;50.228;7.828;2023-07-29T06:52:15;7.87;;;3.80;;
78589;SDS011;67888;50.228;7.828;2023-07-29T06:57:16;9.03;;;4.10;;
78589;SDS011;67888;50.228;7.828;2023-07-29T07:02:16;12.48;;;6.30;;
78589;SDS011;67888;50.228;7.828;2023-07-29T07:07:16;10.47;;;5.37;;
78589;SDS011;67888;50.228;7.828;2023-07-29T07:12:17;7.43;;;3.70;;
78589;SDS011;67888;50.228;7.828;2023-07-29T07:17:18;7.53;;;3.47;;
78589;SDS011;67888;50.228;7.828;2023-07-29T07:22:18;7.00;;;3.50;;
78589;SDS011;67888;50.228;7.828;2023-07-29T07:27:18;5.80;;;3.03;;
78589;SDS011;67888;50.228;7.828;2023-07-29T07:32:19;6.77;;;2.80;;
78589;SDS011;67888;50.228;7.828;2023-07-29T07:37:19;5.78;;;2.50;;
78589;SDS011;67888;50.228;7.828;2023-07-29T07:42:19;6.67;;;2.60;;
78589;SDS011;67888;50.228;7.828;2023-07-29T07:47:20;7.57;;;3.17;;
78589;SDS011;67888;50.228;7.828;2023-07-29T07:52:20;4.80;;;2.40;;
78589;SDS011;67888;50.228;7.828;2023-07-29T07:57:23;5.80;;;2.70;;
78589;SDS011;67888;50.228;7.828;2023-07-29T08:02:23;8.20;;;2.90;;
78589;SDS011;67888;50.228;7.828;2023-07-29T08:07:24;5.73;;;2.80;;
78589;SDS011;67888;50.228;7.828;2023-07-29T08:12:24;5.25;;;2.60;;
78589;SDS011;67888;50.228;7.828;2023-07-29T08:17:25;5.83;;;2.90;;
78589;SDS011;67888;50.228;7.828;2023-07-29T08:22:25;6.77;;;2.97;;
78589;SDS011;67888;50.228;7.828;2023-07-29T08:27:25;5.35;;;2.42;;
78589;SDS011;67888;50.228;7.828;2023-07-29T08:32:26;5.87;;;3.00;;
78589;SDS011;67888;50.228;7.828;2023-07-29T08:37:29;5.43;;;2.50;;
78589;SDS011;67888;50.228;7.828;2023-07-29T08:42:31;7.43;;;2.70;;
78589;SDS011;67888;50.228;7.828;2023-07-29T08:47:32;6.38;;;2.88;;
78589;SDS011;67888;50.228;7.828;2023-07-29T08:52:33;5.13;;;2.73;;
78589;SDS011;67888;50.228;7.828;2023-07-29T08:57:35;5.55;;;2.53;;
78589;SDS011;67888;50.228;7.828;2023-07-29T09:02:35;4.23;;;2.17;;
78589;SDS011;67888;50.228;7.828;2023-07-29T09:07:35;5.60;;;2.50;;
78589;SDS011;67888;50.228;7.828;2023-07-29T09:12:36;4.40;;;2.13;;
78589;SDS011;67888;50.228;7.828;2023-07-29T09:17:37;4.47;;;1.80;;
78589;SDS011;67888;50.228;7.828;2023-07-29T09:22:37;5.20;;;2.03;;
78589;SDS011;67888;50.228;7.828;2023-07-29T09:27:37;4.03;;;2.10;;
78589;SDS011;67888;50.228;7.828;2023-07-29T09:32:39;4.80;;;1.95;;
78589;SDS011;67888;50.228;7.828;2023-07-29T09:37:40;5.05;;;1.90;;
78589;SDS011;67888;50.228;7.828;2023-07-29T09:42:40;4.23;;;1.87;;
78589;SDS011;67888;50.228;7.828;2023-07-29T09:47:47;7.03;;;2.03;;
78589;SDS011;67888;50.228;7.828;2023-07-29T09:52:48;5.47;;;2.30;;
78589;SDS011;67888;50.228;7.828;2023-07-29T09:57:52;5.30;;;2.10;;
78589;SDS011;67888;50.228;7.828;2023-07-29T10:02:53;5.20;;;2.15;;
78589;SDS011;67888;50.228;7.828;2023-07-29T10:07:54;4.77;;;2.03;;
78589;SDS011;67888;50.228;7.828;2023-07-29T10:12:55;4.53;;;2.17;;
78589;SDS011;67888;50.228;7.828;2023-07-29T10:17:56;4.93;;;2.20;;
78589;SDS011;67888;50.228;7.828;2023-07-29T10:22:59;5.30;;;2.33;;
78589;SDS011;67888;50.228;7.828;2023-07-29T10:28:01;21.55;;;4.20;;
78589;SDS011;67888;50.228;7.828;2023-07-29T10:33:03;7.05;;;2.40;;
78589;SDS011;67888;50.228;7.828;2023-07-29T10:38:07;6.60;;;2.40;;
78589;SDS011;67888;50.228;7.828;2023-07-29T10:43:09;5.13;;;2.45;;
78589;SDS011;67888;50.228;7.828;2023-07-29T10:48:12;5.28;;;2.22;;
78589;SDS011;67888;50.228;7.828;2023-07-29T10:53:13;6.53;;;2.37;;
78589;SDS011;67888;50.228;7.828;2023-07-29T10:58:16;4.20;;;2.00;;
78589;SDS011;67888;50.228;7.828;2023-07-29T11:03:20;5.70;;;2.22;;
78589;SDS011;67888;50.228;7.828;2023-07-29T11:08:30;4.30;;;2.03;;
78589;SDS011;67888;50.228;7.828;2023-07-29T11:13:32;7.68;;;2.70;;
78589;SDS011;67888;50.228;7.828;2023-07-29T11:18:32;5.95;;;2.50;;
78589;SDS011;67888;50.228;7.828;2023-07-29T11:23:36;4.77;;;2.10;;
78589;SDS011;67888;50.228;7.828;2023-07-29T11:28:38;4.00;;;2.20;;
78589;SDS011;67888;50.228;7.828;2023-07-29T11:33:38;4.97;;;2.28;;
78589;SDS011;67888;50.228;7.828;2023-07-29T11:38:39;5.50;;;2.50;;
78589;SDS011;67888;50.228;7.828;2023-07-29T11:43:40;5.60;;;2.60;;
78589;SDS011;67888;50.228;7.828;2023-07-29T11:48:40;5.07;;;2.40;;
78589;SDS011;67888;50.228;7.828;2023-07-29T11:53:44;4.77;;;2.27;;
78589;SDS011;67888;50.228;7.828;2023-07-29T11:58:45;4.97;;;2.10;;
78589;SDS011;67888;50.228;7.828;2023-07-29T12:03:45;4.30;;;2.13;;
78589;SDS011;67888;50.228;7.828;2023-07-29T12:08:46;6.47;;;2.60;;
78589;SDS011;67888;50.228;7.828;2023-07-29T12:13:46;4.50;;;2.50;;
78589;SDS011;67888;50.228;7.828;2023-07-29T12:18:49;4.97;;;2.67;;
78589;SDS011;67888;50.228;7.828;2023-07-29T12:23:49;5.37;;;2.87;;
78589;SDS011;67888;50.228;7.828;2023-07-29T12:28:51;4.65;;;2.50;;
78589;SDS011;67888;50.228;7.828;2023-07-29T12:33:55;4.93;;;2.50;;
78589;SDS011;67888;50.228;7.828;2023-07-29T12:38:58;4.70;;;2.58;;
78589;SDS011;67888;50.228;7.828;2023-07-29T12:43:59;4.57;;;2.13;;
78589;SDS011;67888;50.228;7.828;2023-07-29T12:48:59;5.47;;;2.60;;
78589;SDS011;67888;50.228;7.828;2023-07-29T12:54:00;4.87;;;2.70;;
78589;SDS011;67888;50.228;7.828;2023-07-29T12:59:00;4.37;;;2.20;;
78589;SDS011;67888;50.228;7.828;2023-07-29T13:04:01;4.83;;;2.90;;
78589;SDS011;67888;50.228;7.828;2023-07-29T13:09:01;5.97;;;2.03;;
78589;SDS011;67888;50.228;7.828;2023-07-29T13:14:03;3.80;;;2.00;;
78589;SDS011;67888;50.228;7.828;2023-07-29T13:19:03;5.23;;;2.43;;
78589;SDS011;67888;50.228;7.828;2023-07-29T13:24:10;4.47;;;2.40;;
78589;SDS011;67888;50.228;7.828;2023-07-29T13:29:10;5.78;;;2.63;;
78589;SDS011;67888;50.228;7.828;2023-07-29T13:34:11;5.57;;;2.60;;
78589;SDS011;67888;50.228;7.828;2023-07-29T13:39:11;5.80;;;3.00;;
78589;SDS011;67888;50.228;7.828;2023-07-29T13:44:11;7.13;;;3.07;;
78589;SDS011;67888;50.228;7.828;2023-07-29T13:49:12;5.27;;;2.70;;
78589;SDS011;67888;50.228;7.828;2023-07-29T13:54:12;5.00;;;2.70;;
78589;SDS011;67888;50.228;7.828;2023-07-29T13:59:15;5.80;;;2.57;;
78589;SDS011;67888;50.228;7.828;2023-07-29T14:04:15;4.65;;;2.70;;
78589;SDS011;67888;50.228;7.828;2023-07-29T14:09:15;5.83;;;3.00;;
78589;SDS011;67888;50.228;7.828;2023-07-29T14:14:16;5.50;;;2.70;;
78589;SDS011;67888;50.228;7.828;2023-07-29T14:19:16;5.22;;;2.70;;
78589;SDS011;67888;50.228;7.828;2023-07-29T14:24:16;5.70;;;2.70;;
78589;SDS011;67888;50.228;7.828;2023-07-29T14:29:17;5.73;;;2.90;;
78589;SDS011;67888;50.228;7.828;2023-07-29T14:34:17;5.67;;;3.00;;
78589;SDS011;67888;50.228;7.828;2023-07-29T14:39:19;7.20;;;3.17;;
78589;SDS011;67888;50.228;7.828;2023-07-29T14:44:19;9.03;;;6.67;;
78589;SDS011;67888;50.228;7.828;2023-07-29T14:49:20;8.33;;;6.50;;
78589;SDS011;67888;50.228;7.828;2023-07-29T14:54:20;8.00;;;7.20;;
78589;SDS011;67888;50.228;7.828;2023-07-29T14:59:21;9.53;;;8.60;;
78589;SDS011;67888;50.228;7.828;2023-07-29T15:04:21;9.53;;;8.53;;
78589;SDS011;67888;50.228;7.828;2023-07-29T15:09:22;7.85;;;7.07;;
78589;SDS011;67888;50.228;7.828;2023-07-29T15:14:22;6.93;;;3.83;;
78589;SDS011;67888;50.228;7.828;2023-07-29T15:19:23;6.07;;;4.30;;
78589;SDS011;67888;50.228;7.828;2023-07-29T15:24:23;5.07;;;3.17;;
78589;SDS011;67888;50.228;7.828;2023-07-29T15:29:24;4.73;;;2.70;;
78589;SDS011;67888;50.228;7.828;2023-07-29T15:34:34;6.13;;;4.47;;
78589;SDS011;67888;50.228;7.828;2023-07-29T15:39:34;6.80;;;6.07;;
78589;SDS011;67888;50.228;7.828;2023-07-29T15:44:35;6.63;;;3.13;;
78589;SDS011;67888;50.228;7.828;2023-07-29T15:49:37;5.40;;;2.77;;
78589;SDS011;67888;50.228;7.828;2023-07-29T15:54:37;6.97;;;5.80;;
78589;SDS011;67888;50.228;7.828;2023-07-29T15:59:38;6.82;;;5.97;;
78589;SDS011;67888;50.228;7.828;2023-07-29T16:04:38;7.17;;;6.47;;
78589;SDS011;67888;50.228;7.828;2023-07-29T16:09:38;8.13;;;7.43;;
78589;SDS011;67888;50.228;7.828;2023-07-29T16:14:39;5.47;;;3.10;;
78589;SDS011;67888;50.228;7.828;2023-07-29T16:19:56;5.20;;;2.67;;
78589;SDS011;67888;50.228;7.828;2023-07-29T16:24:56;6.38;;;4.47;;
78589;SDS011;67888;50.228;7.828;2023-07-29T16:29:58;12.50;;;11.23;;
78589;SDS011;67888;50.228;7.828;2023-07-29T16:34:58;12.63;;;11.63;;
78589;SDS011;67888;50.228;7.828;2023-07-29T16:40:00;4.13;;;2.57;;
78589;SDS011;67888;50.228;7.828;2023-07-29T16:45:00;5.67;;;2.20;;
78589;SDS011;67888;50.228;7.828;2023-07-29T16:50:01;3.90;;;1.90;;
78589;SDS011;67888;50.228;7.828;2023-07-29T16:55:01;5.10;;;2.63;;
78589;SDS011;67888;50.228;7.828;2023-07-29T17:00:02;7.87;;;7.07;;
78589;SDS011;67888;50.228;7.828;2023-07-29T17:05:03;10.00;;;7.40;;
78589;SDS011;67888;50.228;7.828;2023-07-29T17:10:04;5.93;;;4.10;;
78589;SDS011;67888;50.228;7.828;2023-07-29T17:15:05;6.38;;;4.68;;
78589;SDS011;67888;50.228;7.828;2023-07-29T17:20:08;5.57;;;2.53;;
78589;SDS011;67888;50.228;7.828;2023-07-29T17:25:09;4.38;;;2.53;;
78589;SDS011;67888;50.228;7.828;2023-07-29T17:30:11;4.30;;;2.60;;
78589;SDS011;67888;50.228;7.828;2023-07-29T17:35:11;4.90;;;2.10;;
78589;SDS011;67888;50.228;7.828;2023-07-29T17:40:14;4.50;;;2.10;;
78589;SDS011;67888;50.228;7.828;2023-07-29T17:45:14;6.57;;;4.75;;
78589;SDS011;67888;50.228;7.828;2023-07-29T17:50:15;4.80;;;2.50;;
78589;SDS011;67888;50.228;7.828;2023-07-29T17:55:15;4.03;;;2.20;;
78589;SDS011;67888;50.228;7.828;2023-07-29T18:00:16;5.77;;;2.40;;
78589;SDS011;67888;50.228;7.828;2023-07-29T18:05:16;5.53;;;2.30;;
78589;SDS011;67888;50.228;7.828;2023-07-29T18:10:17;4.70;;;2.17;;
78589;SDS011;67888;50.228;7.828;2023-07-29T18:15:17;5.00;;;2.33;;
78589;SDS011;67888;50.228;7.828;2023-07-29T18:20:17;4.17;;;2.17;;
78589;SDS011;67888;50.228;7.828;2023-07-29T18:25:18;5.47;;;2.10;;
78589;SDS011;67888;50.228;7.828;2023-07-29T18:30:18;5.10;;;2.37;;
78589;SDS011;67888;50.228;7.828;2023-07-29T18:35:18;5.10;;;2.40;;
78589;SDS011;67888;50.228;7.828;2023-07-29T18:40:19;5.13;;;2.00;;
78589;SDS011;67888;50.228;7.828;2023-07-29T18:45:19;4.63;;;2.17;;
78589;SDS011;67888;50.228;7.828;2023-07-29T18:50:19;4.77;;;2.20;;
78589;SDS011;67888;50.228;7.828;2023-07-29T18:55:20;5.10;;;2.50;;
78589;SDS011;67888;50.228;7.828;2023-07-29T19:00:22;5.95;;;2.70;;
78589;SDS011;67888;50.228;7.828;2023-07-29T19:05:22;5.30;;;2.20;;
78589;SDS011;67888;50.228;7.828;2023-07-29T19:10:23;5.30;;;2.40;;
78589;SDS011;67888;50.228;7.828;2023-07-29T19:15:23;6.57;;;2.13;;
78589;SDS011;67888;50.228;7.828;2023-07-29T19:20:23;5.47;;;2.00;;
78589;SDS011;67888;50.228;7.828;2023-07-29T19:25:24;5.67;;;2.27;;
78589;SDS011;67888;50.228;7.828;2023-07-29T19:30:24;6.20;;;2.47;;
78589;SDS011;67888;50.228;7.828;2023-07-29T19:35:24;4.60;;;2.00;;
78589;SDS011;67888;50.228;7.828;2023-07-29T19:40:26;15.15;;;4.10;;
78589;SDS011;67888;50.228;7.828;2023-07-29T19:45:27;14.33;;;3.40;;
78589;SDS011;67888;50.228;7.828;2023-07-29T19:50:28;9.87;;;3.27;;
78589;SDS011;67888;50.228;7.828;2023-07-29T19:55:28;10.20;;;3.97;;
78589;SDS011;67888;50.228;7.828;2023-07-29T20:00:30;8.73;;;2.73;;
78589;SDS011;67888;50.228;7.828;2023-07-29T20:05:31;6.83;;;2.33;;
78589;SDS011;67888;50.228;7.828;2023-07-29T20:10:32;10.30;;;2.60;;
78589;SDS011;67888;50.228;7.828;2023-07-29T20:15:32;7.90;;;2.40;;
78589;SDS011;67888;50.228;7.828;2023-07-29T20:20:33;7.73;;;3.30;;
78589;SDS011;67888;50.228;7.828;2023-07-29T20:25:33;10.70;;;3.83;;
78589;SDS011;67888;50.228;7.828;2023-07-29T20:30:33;9.07;;;2.80;;
78589;SDS011;67888;50.228;7.828;2023-07-29T20:35:34;8.00;;;2.90;;
78589;SDS011;67888;50.228;7.828;2023-07-29T20:40:34;9.10;;;2.73;;
78589;SDS011;67888;50.228;7.828;2023-07-29T20:45:35;7.50;;;2.60;;
78589;SDS011;67888;50.228;7.828;2023-07-29T20:50:41;5.90;;;2.70;;
78589;SDS011;67888;50.228;7.828;2023-07-29T20:55:42;6.15;;;2.63;;
78589;SDS011;67888;50.228;7.828;2023-07-29T21:00:42;8.20;;;3.03;;
78589;SDS011;67888;50.228;7.828;2023-07-29T21:05:43;9.48;;;2.50;;
78589;SDS011;67888;50.228;7.828;2023-07-29T21:10:52;8.00;;;2.87;;
78589;SDS011;67888;50.228;7.828;2023-07-29T21:15:53;7.10;;;2.45;;
78589;SDS011;67888;50.228;7.828;2023-07-29T21:20:53;9.25;;;2.10;;
78589;SDS011;67888;50.228;7.828;2023-07-29T21:25:54;8.85;;;2.30;;
78589;SDS011;67888;50.228;7.828;2023-07-29T21:30:57;7.13;;;2.40;;
78589;SDS011;67888;50.228;7.828;2023-07-29T21:35:57;7.80;;;2.80;;
78589;SDS011;67888;50.228;7.828;2023-07-29T21:40:58;7.30;;;2.40;;
78589;SDS011;67888;50.228;7.828;2023-07-29T21:45:58;8.97;;;2.37;;
78589;SDS011;67888;50.228;7.828;2023-07-29T21:50:59;8.67;;;2.70;;
78589;SDS011;67888;50.228;7.828;2023-07-29T21:56:02;6.33;;;2.50;;
78589;SDS011;67888;50.228;7.828;2023-07-29T22:01:03;6.15;;;2.10;;
78589;SDS011;67888;50.228;7.828;2023-07-29T22:06:04;5.90;;;2.10;;
78589;SDS011;67888;50.228;7.828;2023-07-29T22:11:05;6.10;;;2.55;;
78589;SDS011;67888;50.228;7.828;2023-07-29T22:16:06;8.00;;;2.57;;
78589;SDS011;67888;50.228;7.828;2023-07-29T22:21:06;8.35;;;2.60;;
78589;SDS011;67888;50.228;7.828;2023-07-29T22:26:07;7.07;;;2.87;;
78589;SDS011;67888;50.228;7.828;2023-07-29T22:31:08;10.70;;;3.53;;
78589;SDS011;67888;50.228;7.828;2023-07-29T22:36:10;7.95;;;2.83;;
78589;SDS011;67888;50.228;7.828;2023-07-29T22:41:10;6.87;;;3.03;;
78589;SDS011;67888;50.228;7.828;2023-07-29T22:46:11;9.17;;;3.10;;
78589;SDS011;67888;50.228;7.828;2023-07-29T22:51:11;5.83;;;2.33;;
78589;SDS011;67888;50.228;7.828;2023-07-29T22:56:11;8.60;;;2.80;;
78589;SDS011;67888;50.228;7.828;2023-07-29T23:01:12;10.90;;;3.17;;
78589;SDS011;67888;50.228;7.828;2023-07-29T23:06:13;7.60;;;2.50;;
78589;SDS011;67888;50.228;7.828;2023-07-29T23:11:13;7.10;;;3.20;;
78589;SDS011;67888;50.228;7.828;2023-07-29T23:16:13;7.73;;;3.20;;
78589;SDS011;67888;50.228;7.828;2023-07-29T23:21:14;8.27;;;2.93;;
78589;SDS011;67888;50.228;7.828;2023-07-29T23:26:14;8.37;;;2.83;;
78589;SDS011;67888;50.228;7.828;2023-07-29T23:31:14;7.00;;;2.80;;
78589;SDS011;67888;50.228;7.828;2023-07-29T23:36:15;6.40;;;2.80;;
78589;SDS011;67888;50.228;7.828;2023-07-29T23:41:15;6.77;;;2.63;;
78589;SDS011;67888;50.228;7.828;2023-07-29T23:46:16;8.20;;;2.70;;
78589;SDS011;67888;50.228;7.828;2023-07-29T23:51:16;6.83;;;2.60;;
78589;SDS011;67888;50.228;7.828;2023-07-29T23:56:16;5.53;;;2.40;;
